sensor_id;sensor_type;location;lat;lon;timestamp;temperature;humidity
61253;DHT22;47127;47.516;8.596;2022-07-10T00:01:50;18.70;93.80
61253;DHT22;47127;47.516;8.596;2022-07-10T00:04:15;18.70;93.80
61253;DHT22;47127;47.516;8.596;2022-07-10T00:06:41;18.70;93.80
61253;DHT22;47127;47.516;8.596;2022-07-10T00:09:08;18.70;93.80
61253;DHT22;47127;47.516;8.596;2022-07-10T00:11:34;18.70;94.00
61253;DHT22;47127;47.516;8.596;2022-07-10T00:13:59;18.60;94.10
61253;DHT22;47127;47.516;8.596;2022-07-10T00:16:25;18.50;94.40
61253;DHT22;47127;47.516;8.596;2022-07-10T00:18:51;18.60;94.20
61253;DHT22;47127;47.516;8.596;2022-07-10T00:21:16;18.60;94.10
61253;DHT22;47127;47.516;8.596;2022-07-10T00:23:42;18.70;93.90
61253;DHT22;47127;47.516;8.596;2022-07-10T00:26:08;18.70;94.00
61253;DHT22;47127;47.516;8.596;2022-07-10T00:28:35;18.70;94.20
61253;DHT22;47127;47.516;8.596;2022-07-10T00:31:02;18.70;94.40
61253;DHT22;47127;47.516;8.596;2022-07-10T00:33:27;18.70;95.00
61253;DHT22;47127;47.516;8.596;2022-07-10T00:35:53;18.60;94.80
61253;DHT22;47127;47.516;8.596;2022-07-10T00:38:19;18.60;95.00
61253;DHT22;47127;47.516;8.596;2022-07-10T00:40:45;18.50;94.90
61253;DHT22;47127;47.516;8.596;2022-07-10T00:43:10;18.60;94.70
61253;DHT22;47127;47.516;8.596;2022-07-10T00:45:36;18.70;94.70
61253;DHT22;47127;47.516;8.596;2022-07-10T00:48:02;18.60;95.10
61253;DHT22;47127;47.516;8.596;2022-07-10T00:50:28;18.60;95.10
61253;DHT22;47127;47.516;8.596;2022-07-10T00:52:54;18.70;95.10
61253;DHT22;47127;47.516;8.596;2022-07-10T00:55:21;18.70;95.20
61253;DHT22;47127;47.516;8.596;2022-07-10T00:57:48;18.80;95.30
61253;DHT22;47127;47.516;8.596;2022-07-10T01:00:14;18.70;95.50
61253;DHT22;47127;47.516;8.596;2022-07-10T01:02:42;18.60;95.80
61253;DHT22;47127;47.516;8.596;2022-07-10T01:05:08;18.60;95.60
61253;DHT22;47127;47.516;8.596;2022-07-10T01:07:34;18.70;95.20
61253;DHT22;47127;47.516;8.596;2022-07-10T01:10:00;18.80;94.80
61253;DHT22;47127;47.516;8.596;2022-07-10T01:12:27;18.90;95.30
61253;DHT22;47127;47.516;8.596;2022-07-10T01:14:54;18.70;95.40
61253;DHT22;47127;47.516;8.596;2022-07-10T01:17:20;18.70;95.20
61253;DHT22;47127;47.516;8.596;2022-07-10T01:19:46;18.60;95.70
61253;DHT22;47127;47.516;8.596;2022-07-10T01:22:12;18.60;95.40
61253;DHT22;47127;47.516;8.596;2022-07-10T01:24:38;18.60;96.20
61253;DHT22;47127;47.516;8.596;2022-07-10T01:27:03;18.50;96.50
61253;DHT22;47127;47.516;8.596;2022-07-10T01:29:29;18.40;96.00
61253;DHT22;47127;47.516;8.596;2022-07-10T01:31:55;18.50;95.80
61253;DHT22;47127;47.516;8.596;2022-07-10T01:34:22;18.60;95.40
61253;DHT22;47127;47.516;8.596;2022-07-10T01:36:47;18.70;95.20
61253;DHT22;47127;47.516;8.596;2022-07-10T01:39:13;18.70;95.10
61253;DHT22;47127;47.516;8.596;2022-07-10T01:41:39;18.70;95.10
61253;DHT22;47127;47.516;8.596;2022-07-10T01:44:04;18.70;95.20
61253;DHT22;47127;47.516;8.596;2022-07-10T01:46:30;18.70;95.10
61253;DHT22;47127;47.516;8.596;2022-07-10T01:48:56;18.60;95.30
61253;DHT22;47127;47.516;8.596;2022-07-10T01:51:22;18.50;95.50
61253;DHT22;47127;47.516;8.596;2022-07-10T01:53:47;18.60;95.30
61253;DHT22;47127;47.516;8.596;2022-07-10T01:56:14;18.50;95.40
61253;DHT22;47127;47.516;8.596;2022-07-10T01:58:40;18.60;95.10
61253;DHT22;47127;47.516;8.596;2022-07-10T02:01:06;18.70;94.80
61253;DHT22;47127;47.516;8.596;2022-07-10T02:03:32;18.80;94.70
61253;DHT22;47127;47.516;8.596;2022-07-10T02:06:16;18.80;94.50
61253;DHT22;47127;47.516;8.596;2022-07-10T02:08:42;18.80;94.60
61253;DHT22;47127;47.516;8.596;2022-07-10T02:11:08;18.80;94.70
61253;DHT22;47127;47.516;8.596;2022-07-10T02:13:33;18.80;94.70
61253;DHT22;47127;47.516;8.596;2022-07-10T02:15:59;18.70;94.60
61253;DHT22;47127;47.516;8.596;2022-07-10T02:18:25;18.70;94.60
61253;DHT22;47127;47.516;8.596;2022-07-10T02:20:52;18.60;95.20
61253;DHT22;47127;47.516;8.596;2022-07-10T02:23:17;18.40;95.70
61253;DHT22;47127;47.516;8.596;2022-07-10T02:25:43;18.40;96.00
61253;DHT22;47127;47.516;8.596;2022-07-10T02:28:09;18.40;95.90
61253;DHT22;47127;47.516;8.596;2022-07-10T02:30:35;18.50;96.00
61253;DHT22;47127;47.516;8.596;2022-07-10T02:33:01;18.40;95.80
61253;DHT22;47127;47.516;8.596;2022-07-10T02:35:27;18.20;96.60
61253;DHT22;47127;47.516;8.596;2022-07-10T02:37:53;18.00;96.90
61253;DHT22;47127;47.516;8.596;2022-07-10T02:40:18;18.00;97.00
61253;DHT22;47127;47.516;8.596;2022-07-10T02:42:44;17.90;97.20
61253;DHT22;47127;47.516;8.596;2022-07-10T02:45:10;18.00;97.90
61253;DHT22;47127;47.516;8.596;2022-07-10T02:47:35;17.90;97.80
61253;DHT22;47127;47.516;8.596;2022-07-10T02:50:01;17.90;97.70
61253;DHT22;47127;47.516;8.596;2022-07-10T02:52:27;18.00;97.70
61253;DHT22;47127;47.516;8.596;2022-07-10T02:54:56;18.10;97.10
61253;DHT22;47127;47.516;8.596;2022-07-10T02:57:21;18.20;96.80
61253;DHT22;47127;47.516;8.596;2022-07-10T02:59:47;18.20;96.70
61253;DHT22;47127;47.516;8.596;2022-07-10T03:02:12;18.20;97.20
61253;DHT22;47127;47.516;8.596;2022-07-10T03:04:38;18.20;97.40
61253;DHT22;47127;47.516;8.596;2022-07-10T03:07:04;18.20;98.30
61253;DHT22;47127;47.516;8.596;2022-07-10T03:09:30;18.10;98.60
61253;DHT22;47127;47.516;8.596;2022-07-10T03:11:55;18.10;98.40
61253;DHT22;47127;47.516;8.596;2022-07-10T03:14:21;18.20;98.40
61253;DHT22;47127;47.516;8.596;2022-07-10T03:16:46;18.20;98.40
61253;DHT22;47127;47.516;8.596;2022-07-10T03:19:12;18.20;98.30
61253;DHT22;47127;47.516;8.596;2022-07-10T03:21:38;18.20;98.20
61253;DHT22;47127;47.516;8.596;2022-07-10T03:24:04;18.10;98.30
61253;DHT22;47127;47.516;8.596;2022-07-10T03:26:29;18.10;98.10
61253;DHT22;47127;47.516;8.596;2022-07-10T03:28:55;18.10;97.90
61253;DHT22;47127;47.516;8.596;2022-07-10T03:31:21;18.10;97.90
61253;DHT22;47127;47.516;8.596;2022-07-10T03:33:47;18.00;98.40
61253;DHT22;47127;47.516;8.596;2022-07-10T03:36:13;18.00;98.60
61253;DHT22;47127;47.516;8.596;2022-07-10T03:38:39;18.00;98.70
61253;DHT22;47127;47.516;8.596;2022-07-10T03:41:05;18.00;98.60
61253;DHT22;47127;47.516;8.596;2022-07-10T03:43:30;18.00;98.40
61253;DHT22;47127;47.516;8.596;2022-07-10T03:45:57;18.00;98.30
61253;DHT22;47127;47.516;8.596;2022-07-10T03:48:23;18.10;98.30
61253;DHT22;47127;47.516;8.596;2022-07-10T03:50:52;18.10;98.40
61253;DHT22;47127;47.516;8.596;2022-07-10T03:53:18;18.20;98.60
61253;DHT22;47127;47.516;8.596;2022-07-10T03:55:44;18.20;98.60
61253;DHT22;47127;47.516;8.596;2022-07-10T03:58:10;18.20;98.90
61253;DHT22;47127;47.516;8.596;2022-07-10T04:00:35;18.10;99.00
61253;DHT22;47127;47.516;8.596;2022-07-10T04:03:05;18.00;98.60
61253;DHT22;47127;47.516;8.596;2022-07-10T04:05:31;17.90;99.00
61253;DHT22;47127;47.516;8.596;2022-07-10T04:07:58;17.90;99.00
61253;DHT22;47127;47.516;8.596;2022-07-10T04:10:25;17.90;98.70
61253;DHT22;47127;47.516;8.596;2022-07-10T04:12:51;18.00;98.50
61253;DHT22;47127;47.516;8.596;2022-07-10T04:15:17;18.10;98.30
61253;DHT22;47127;47.516;8.596;2022-07-10T04:17:43;18.20;98.20
61253;DHT22;47127;47.516;8.596;2022-07-10T04:20:09;18.30;98.70
61253;DHT22;47127;47.516;8.596;2022-07-10T04:22:35;18.20;98.60
61253;DHT22;47127;47.516;8.596;2022-07-10T04:25:01;18.20;99.00
61253;DHT22;47127;47.516;8.596;2022-07-10T04:27:27;18.10;99.20
61253;DHT22;47127;47.516;8.596;2022-07-10T04:29:52;18.10;99.30
61253;DHT22;47127;47.516;8.596;2022-07-10T04:32:18;18.10;99.10
61253;DHT22;47127;47.516;8.596;2022-07-10T04:34:44;18.10;99.40
61253;DHT22;47127;47.516;8.596;2022-07-10T04:37:09;18.10;99.70
61253;DHT22;47127;47.516;8.596;2022-07-10T04:39:36;18.10;99.90
61253;DHT22;47127;47.516;8.596;2022-07-10T04:42:03;18.10;99.90
61253;DHT22;47127;47.516;8.596;2022-07-10T04:44:29;18.20;99.20
61253;DHT22;47127;47.516;8.596;2022-07-10T04:46:54;18.30;98.40
61253;DHT22;47127;47.516;8.596;2022-07-10T04:49:20;18.30;98.40
61253;DHT22;47127;47.516;8.596;2022-07-10T04:51:46;18.30;98.50
61253;DHT22;47127;47.516;8.596;2022-07-10T04:54:11;18.40;98.40
61253;DHT22;47127;47.516;8.596;2022-07-10T04:56:37;18.50;98.00
61253;DHT22;47127;47.516;8.596;2022-07-10T04:59:02;18.60;97.80
61253;DHT22;47127;47.516;8.596;2022-07-10T05:01:28;18.60;97.40
61253;DHT22;47127;47.516;8.596;2022-07-10T05:03:54;18.70;97.30
61253;DHT22;47127;47.516;8.596;2022-07-10T05:06:19;18.80;96.90
61253;DHT22;47127;47.516;8.596;2022-07-10T05:08:45;18.90;96.30
61253;DHT22;47127;47.516;8.596;2022-07-10T05:11:11;19.00;96.20
61253;DHT22;47127;47.516;8.596;2022-07-10T05:13:36;19.10;96.10
61253;DHT22;47127;47.516;8.596;2022-07-10T05:16:03;19.20;95.70
61253;DHT22;47127;47.516;8.596;2022-07-10T05:18:28;19.20;95.50
61253;DHT22;47127;47.516;8.596;2022-07-10T05:20:54;19.30;95.40
61253;DHT22;47127;47.516;8.596;2022-07-10T05:23:20;19.20;95.00
61253;DHT22;47127;47.516;8.596;2022-07-10T05:25:45;19.40;94.40
61253;DHT22;47127;47.516;8.596;2022-07-10T05:28:11;19.50;94.30
61253;DHT22;47127;47.516;8.596;2022-07-10T05:30:39;19.60;95.90
61253;DHT22;47127;47.516;8.596;2022-07-10T05:33:05;19.60;94.10
61253;DHT22;47127;47.516;8.596;2022-07-10T05:35:31;19.60;94.20
61253;DHT22;47127;47.516;8.596;2022-07-10T05:37:56;19.50;94.00
61253;DHT22;47127;47.516;8.596;2022-07-10T05:40:22;19.60;94.00
61253;DHT22;47127;47.516;8.596;2022-07-10T05:42:48;19.60;93.50
61253;DHT22;47127;47.516;8.596;2022-07-10T05:45:13;19.50;93.50
61253;DHT22;47127;47.516;8.596;2022-07-10T05:47:39;19.60;93.40
61253;DHT22;47127;47.516;8.596;2022-07-10T05:50:05;19.60;93.40
61253;DHT22;47127;47.516;8.596;2022-07-10T05:52:31;19.40;93.30
61253;DHT22;47127;47.516;8.596;2022-07-10T05:54:58;19.40;94.10
61253;DHT22;47127;47.516;8.596;2022-07-10T05:57:24;19.50;93.70
61253;DHT22;47127;47.516;8.596;2022-07-10T05:59:50;19.50;93.40
61253;DHT22;47127;47.516;8.596;2022-07-10T06:02:16;19.60;93.40
61253;DHT22;47127;47.516;8.596;2022-07-10T06:04:42;19.70;93.30
61253;DHT22;47127;47.516;8.596;2022-07-10T06:07:07;19.60;93.30
61253;DHT22;47127;47.516;8.596;2022-07-10T06:09:33;19.70;93.20
61253;DHT22;47127;47.516;8.596;2022-07-10T06:11:59;19.80;92.80
61253;DHT22;47127;47.516;8.596;2022-07-10T06:14:24;19.80;92.80
61253;DHT22;47127;47.516;8.596;2022-07-10T06:16:50;19.90;92.80
61253;DHT22;47127;47.516;8.596;2022-07-10T06:19:15;20.00;92.60
61253;DHT22;47127;47.516;8.596;2022-07-10T06:21:42;20.00;92.60
61253;DHT22;47127;47.516;8.596;2022-07-10T06:24:08;20.00;92.30
61253;DHT22;47127;47.516;8.596;2022-07-10T06:26:34;20.00;92.40
61253;DHT22;47127;47.516;8.596;2022-07-10T06:29:00;20.00;92.20
61253;DHT22;47127;47.516;8.596;2022-07-10T06:31:25;20.10;91.90
61253;DHT22;47127;47.516;8.596;2022-07-10T06:33:51;20.10;92.00
61253;DHT22;47127;47.516;8.596;2022-07-10T06:36:17;20.20;91.90
61253;DHT22;47127;47.516;8.596;2022-07-10T06:38:42;20.00;91.70
61253;DHT22;47127;47.516;8.596;2022-07-10T06:41:08;20.10;91.90
61253;DHT22;47127;47.516;8.596;2022-07-10T06:43:34;20.10;91.90
61253;DHT22;47127;47.516;8.596;2022-07-10T06:46:00;20.20;92.00
61253;DHT22;47127;47.516;8.596;2022-07-10T06:48:27;20.00;92.00
61253;DHT22;47127;47.516;8.596;2022-07-10T06:50:53;20.20;91.90
61253;DHT22;47127;47.516;8.596;2022-07-10T06:53:19;20.20;91.90
61253;DHT22;47127;47.516;8.596;2022-07-10T06:55:50;20.20;92.20
61253;DHT22;47127;47.516;8.596;2022-07-10T06:58:16;20.30;92.00
61253;DHT22;47127;47.516;8.596;2022-07-10T07:00:41;20.40;91.50
61253;DHT22;47127;47.516;8.596;2022-07-10T07:03:07;20.40;91.60
61253;DHT22;47127;47.516;8.596;2022-07-10T07:05:32;20.40;91.90
61253;DHT22;47127;47.516;8.596;2022-07-10T07:07:58;20.60;91.50
61253;DHT22;47127;47.516;8.596;2022-07-10T07:10:24;20.70;91.30
61253;DHT22;47127;47.516;8.596;2022-07-10T07:12:49;20.80;91.00
61253;DHT22;47127;47.516;8.596;2022-07-10T07:15:15;20.90;90.80
61253;DHT22;47127;47.516;8.596;2022-07-10T07:17:42;20.80;90.80
61253;DHT22;47127;47.516;8.596;2022-07-10T07:20:31;20.80;90.90
61253;DHT22;47127;47.516;8.596;2022-07-10T07:23:15;20.60;91.00
61253;DHT22;47127;47.516;8.596;2022-07-10T07:25:41;20.50;91.40
61253;DHT22;47127;47.516;8.596;2022-07-10T07:28:13;20.60;91.30
61253;DHT22;47127;47.516;8.596;2022-07-10T07:30:44;20.70;91.00
61253;DHT22;47127;47.516;8.596;2022-07-10T07:33:10;20.70;91.10
61253;DHT22;47127;47.516;8.596;2022-07-10T07:35:36;20.50;91.10
61253;DHT22;47127;47.516;8.596;2022-07-10T07:38:03;20.60;91.00
61253;DHT22;47127;47.516;8.596;2022-07-10T07:40:29;20.70;90.70
61253;DHT22;47127;47.516;8.596;2022-07-10T07:42:55;20.70;90.40
61253;DHT22;47127;47.516;8.596;2022-07-10T07:45:22;20.80;90.30
61253;DHT22;47127;47.516;8.596;2022-07-10T07:47:50;20.80;90.30
61253;DHT22;47127;47.516;8.596;2022-07-10T07:50:20;20.90;90.30
61253;DHT22;47127;47.516;8.596;2022-07-10T07:52:47;20.80;90.40
61253;DHT22;47127;47.516;8.596;2022-07-10T07:55:14;20.80;90.60
61253;DHT22;47127;47.516;8.596;2022-07-10T07:57:40;21.00;90.40
61253;DHT22;47127;47.516;8.596;2022-07-10T08:00:07;21.20;89.60
61253;DHT22;47127;47.516;8.596;2022-07-10T08:02:33;21.30;89.90
61253;DHT22;47127;47.516;8.596;2022-07-10T08:04:59;21.30;89.80
61253;DHT22;47127;47.516;8.596;2022-07-10T08:07:36;21.30;89.80
61253;DHT22;47127;47.516;8.596;2022-07-10T08:10:03;21.10;90.00
61253;DHT22;47127;47.516;8.596;2022-07-10T08:12:28;21.10;90.00
61253;DHT22;47127;47.516;8.596;2022-07-10T08:14:55;21.20;89.80
61253;DHT22;47127;47.516;8.596;2022-07-10T08:17:21;21.20;89.90
61253;DHT22;47127;47.516;8.596;2022-07-10T08:19:47;21.20;89.80
61253;DHT22;47127;47.516;8.596;2022-07-10T08:22:12;21.10;90.20
61253;DHT22;47127;47.516;8.596;2022-07-10T08:24:38;21.20;90.10
61253;DHT22;47127;47.516;8.596;2022-07-10T08:27:04;21.50;89.60
61253;DHT22;47127;47.516;8.596;2022-07-10T08:29:31;21.50;88.20
61253;DHT22;47127;47.516;8.596;2022-07-10T08:31:57;21.60;88.10
61253;DHT22;47127;47.516;8.596;2022-07-10T08:34:22;21.60;88.60
61253;DHT22;47127;47.516;8.596;2022-07-10T08:36:48;21.60;88.50
61253;DHT22;47127;47.516;8.596;2022-07-10T08:39:14;21.80;87.90
61253;DHT22;47127;47.516;8.596;2022-07-10T08:41:42;21.90;88.30
61253;DHT22;47127;47.516;8.596;2022-07-10T08:44:10;22.10;87.20
61253;DHT22;47127;47.516;8.596;2022-07-10T08:46:36;21.90;86.20
61253;DHT22;47127;47.516;8.596;2022-07-10T08:49:05;21.80;86.40
61253;DHT22;47127;47.516;8.596;2022-07-10T08:51:36;21.80;86.90
61253;DHT22;47127;47.516;8.596;2022-07-10T08:54:04;21.70;86.20
61253;DHT22;47127;47.516;8.596;2022-07-10T08:56:31;21.70;86.30
61253;DHT22;47127;47.516;8.596;2022-07-10T08:58:58;21.80;86.80
61253;DHT22;47127;47.516;8.596;2022-07-10T09:01:24;22.10;86.40
61253;DHT22;47127;47.516;8.596;2022-07-10T09:03:50;22.20;86.50
61253;DHT22;47127;47.516;8.596;2022-07-10T09:06:16;22.40;85.70
61253;DHT22;47127;47.516;8.596;2022-07-10T09:09:01;22.50;85.50
61253;DHT22;47127;47.516;8.596;2022-07-10T09:11:28;22.70;84.30
61253;DHT22;47127;47.516;8.596;2022-07-10T09:14:02;22.60;84.00
61253;DHT22;47127;47.516;8.596;2022-07-10T09:16:35;22.90;83.20
61253;DHT22;47127;47.516;8.596;2022-07-10T09:19:25;23.00;82.80
61253;DHT22;47127;47.516;8.596;2022-07-10T09:22:03;22.90;82.30
61253;DHT22;47127;47.516;8.596;2022-07-10T09:24:35;22.80;81.80
61253;DHT22;47127;47.516;8.596;2022-07-10T09:27:03;22.80;82.00
61253;DHT22;47127;47.516;8.596;2022-07-10T09:29:29;22.60;82.10
61253;DHT22;47127;47.516;8.596;2022-07-10T09:32:01;22.50;82.40
61253;DHT22;47127;47.516;8.596;2022-07-10T09:34:43;22.40;82.70
61253;DHT22;47127;47.516;8.596;2022-07-10T09:37:23;22.20;83.10
61253;DHT22;47127;47.516;8.596;2022-07-10T09:40:03;22.40;83.40
61253;DHT22;47127;47.516;8.596;2022-07-10T09:42:35;22.80;82.60
61253;DHT22;47127;47.516;8.596;2022-07-10T09:48:05;23.40;80.10
61253;DHT22;47127;47.516;8.596;2022-07-10T09:50:35;23.30;79.60
61253;DHT22;47127;47.516;8.596;2022-07-10T09:53:05;23.60;80.00
61253;DHT22;47127;47.516;8.596;2022-07-10T09:55:35;23.70;81.20
61253;DHT22;47127;47.516;8.596;2022-07-10T09:58:02;24.00;79.10
61253;DHT22;47127;47.516;8.596;2022-07-10T10:00:33;23.90;78.70
61253;DHT22;47127;47.516;8.596;2022-07-10T10:03:00;23.70;77.50
61253;DHT22;47127;47.516;8.596;2022-07-10T10:05:53;23.60;77.60
61253;DHT22;47127;47.516;8.596;2022-07-10T10:08:32;23.40;79.40
61253;DHT22;47127;47.516;8.596;2022-07-10T10:10:59;23.20;80.50
61253;DHT22;47127;47.516;8.596;2022-07-10T10:13:27;23.50;79.70
61253;DHT22;47127;47.516;8.596;2022-07-10T10:15:54;23.70;78.20
61253;DHT22;47127;47.516;8.596;2022-07-10T10:18:24;23.80;79.30
61253;DHT22;47127;47.516;8.596;2022-07-10T10:20:54;24.10;76.90
61253;DHT22;47127;47.516;8.596;2022-07-10T10:23:24;24.40;76.20
61253;DHT22;47127;47.516;8.596;2022-07-10T10:25:52;24.40;75.60
61253;DHT22;47127;47.516;8.596;2022-07-10T10:28:19;24.30;75.90
61253;DHT22;47127;47.516;8.596;2022-07-10T10:30:51;24.30;75.60
61253;DHT22;47127;47.516;8.596;2022-07-10T10:33:44;24.70;75.90
61253;DHT22;47127;47.516;8.596;2022-07-10T10:36:13;24.80;75.30
61253;DHT22;47127;47.516;8.596;2022-07-10T10:41:37;25.20;73.80
61253;DHT22;47127;47.516;8.596;2022-07-10T10:49:23;24.90;71.60
61253;DHT22;47127;47.516;8.596;2022-07-10T10:51:58;24.60;71.70
61253;DHT22;47127;47.516;8.596;2022-07-10T10:54:27;24.70;71.90
61253;DHT22;47127;47.516;8.596;2022-07-10T11:00:04;24.30;73.00
61253;DHT22;47127;47.516;8.596;2022-07-10T11:02:34;24.50;72.20
61253;DHT22;47127;47.516;8.596;2022-07-10T11:07:59;24.40;73.30
61253;DHT22;47127;47.516;8.596;2022-07-10T11:10:36;24.60;72.40
61253;DHT22;47127;47.516;8.596;2022-07-10T11:13:12;25.20;72.60
61253;DHT22;47127;47.516;8.596;2022-07-10T11:15:43;25.70;71.40
61253;DHT22;47127;47.516;8.596;2022-07-10T11:18:14;25.90;71.00
61253;DHT22;47127;47.516;8.596;2022-07-10T11:20:42;25.90;68.40
61253;DHT22;47127;47.516;8.596;2022-07-10T11:26:07;26.20;67.10
61253;DHT22;47127;47.516;8.596;2022-07-10T11:31:14;26.10;67.40
61253;DHT22;47127;47.516;8.596;2022-07-10T11:33:41;26.50;66.90
61253;DHT22;47127;47.516;8.596;2022-07-10T11:36:12;26.60;66.00
61253;DHT22;47127;47.516;8.596;2022-07-10T11:38:40;26.70;66.20
61253;DHT22;47127;47.516;8.596;2022-07-10T11:41:19;26.70;66.70
61253;DHT22;47127;47.516;8.596;2022-07-10T11:43:56;26.90;64.90
61253;DHT22;47127;47.516;8.596;2022-07-10T11:46:24;27.00;65.30
61253;DHT22;47127;47.516;8.596;2022-07-10T11:48:51;26.60;65.10
61253;DHT22;47127;47.516;8.596;2022-07-10T11:51:25;26.70;65.10
61253;DHT22;47127;47.516;8.596;2022-07-10T11:53:58;26.70;64.10
61253;DHT22;47127;47.516;8.596;2022-07-10T11:56:25;26.90;63.70
61253;DHT22;47127;47.516;8.596;2022-07-10T11:59:10;27.20;63.50
61253;DHT22;47127;47.516;8.596;2022-07-10T12:04:09;26.90;62.00
61253;DHT22;47127;47.516;8.596;2022-07-10T12:06:43;27.40;62.30
61253;DHT22;47127;47.516;8.596;2022-07-10T12:09:14;27.90;60.90
61253;DHT22;47127;47.516;8.596;2022-07-10T12:11:40;27.90;60.70
61253;DHT22;47127;47.516;8.596;2022-07-10T12:14:14;27.80;61.10
61253;DHT22;47127;47.516;8.596;2022-07-10T12:16:41;27.40;60.80
61253;DHT22;47127;47.516;8.596;2022-07-10T12:19:12;27.50;61.20
61253;DHT22;47127;47.516;8.596;2022-07-10T12:21:43;27.90;60.70
61253;DHT22;47127;47.516;8.596;2022-07-10T12:24:09;28.10;59.70
61253;DHT22;47127;47.516;8.596;2022-07-10T12:26:38;28.00;58.90
61253;DHT22;47127;47.516;8.596;2022-07-10T12:29:05;27.80;59.50
61253;DHT22;47127;47.516;8.596;2022-07-10T12:31:33;27.80;58.30
61253;DHT22;47127;47.516;8.596;2022-07-10T12:34:03;27.60;57.10
61253;DHT22;47127;47.516;8.596;2022-07-10T12:36:50;27.50;57.00
61253;DHT22;47127;47.516;8.596;2022-07-10T12:39:18;26.90;57.80
61253;DHT22;47127;47.516;8.596;2022-07-10T12:42:03;27.10;58.40
61253;DHT22;47127;47.516;8.596;2022-07-10T12:44:43;27.40;57.10
61253;DHT22;47127;47.516;8.596;2022-07-10T12:47:21;27.40;56.90
61253;DHT22;47127;47.516;8.596;2022-07-10T12:50:07;27.60;57.00
61253;DHT22;47127;47.516;8.596;2022-07-10T12:52:35;27.90;55.60
61253;DHT22;47127;47.516;8.596;2022-07-10T12:55:18;27.90;55.90
61253;DHT22;47127;47.516;8.596;2022-07-10T13:00:20;27.30;56.00
61253;DHT22;47127;47.516;8.596;2022-07-10T13:02:47;27.30;55.90
61253;DHT22;47127;47.516;8.596;2022-07-10T13:05:36;27.80;55.80
61253;DHT22;47127;47.516;8.596;2022-07-10T13:10:41;27.60;55.10
61253;DHT22;47127;47.516;8.596;2022-07-10T13:13:08;27.40;55.80
61253;DHT22;47127;47.516;8.596;2022-07-10T13:15:34;27.50;56.00
61253;DHT22;47127;47.516;8.596;2022-07-10T13:18:07;27.60;55.50
61253;DHT22;47127;47.516;8.596;2022-07-10T13:20:33;27.70;55.30
61253;DHT22;47127;47.516;8.596;2022-07-10T13:22:58;27.70;55.40
61253;DHT22;47127;47.516;8.596;2022-07-10T13:25:24;28.20;55.10
61253;DHT22;47127;47.516;8.596;2022-07-10T13:27:50;28.50;55.00
61253;DHT22;47127;47.516;8.596;2022-07-10T13:30:17;28.60;55.00
61253;DHT22;47127;47.516;8.596;2022-07-10T13:32:42;28.70;53.90
61253;DHT22;47127;47.516;8.596;2022-07-10T13:35:08;28.60;54.20
61253;DHT22;47127;47.516;8.596;2022-07-10T13:37:34;28.60;54.30
61253;DHT22;47127;47.516;8.596;2022-07-10T13:40:00;28.10;54.20
61253;DHT22;47127;47.516;8.596;2022-07-10T13:42:25;27.50;55.30
61253;DHT22;47127;47.516;8.596;2022-07-10T13:44:51;27.60;55.00
61253;DHT22;47127;47.516;8.596;2022-07-10T13:47:17;27.60;55.10
61253;DHT22;47127;47.516;8.596;2022-07-10T13:49:42;27.30;55.40
61253;DHT22;47127;47.516;8.596;2022-07-10T13:52:08;27.20;56.00
61253;DHT22;47127;47.516;8.596;2022-07-10T13:54:34;27.10;56.70
61253;DHT22;47127;47.516;8.596;2022-07-10T13:57:00;27.00;57.00
61253;DHT22;47127;47.516;8.596;2022-07-10T13:59:27;26.90;56.80
61253;DHT22;47127;47.516;8.596;2022-07-10T14:01:52;27.20;56.70
61253;DHT22;47127;47.516;8.596;2022-07-10T14:04:18;27.50;56.70
61253;DHT22;47127;47.516;8.596;2022-07-10T14:06:43;27.80;56.10
61253;DHT22;47127;47.516;8.596;2022-07-10T14:09:09;28.20;55.90
61253;DHT22;47127;47.516;8.596;2022-07-10T14:11:34;28.30;56.60
61253;DHT22;47127;47.516;8.596;2022-07-10T14:14:01;28.20;56.70
61253;DHT22;47127;47.516;8.596;2022-07-10T14:16:26;28.00;56.40
61253;DHT22;47127;47.516;8.596;2022-07-10T14:18:52;27.70;56.00
61253;DHT22;47127;47.516;8.596;2022-07-10T14:21:19;27.90;54.90
61253;DHT22;47127;47.516;8.596;2022-07-10T14:23:45;27.80;54.90
61253;DHT22;47127;47.516;8.596;2022-07-10T14:26:12;27.60;55.80
61253;DHT22;47127;47.516;8.596;2022-07-10T14:28:37;27.50;56.30
61253;DHT22;47127;47.516;8.596;2022-07-10T14:31:05;27.20;57.00
61253;DHT22;47127;47.516;8.596;2022-07-10T14:33:32;27.20;57.40
61253;DHT22;47127;47.516;8.596;2022-07-10T14:35:58;27.20;58.00
61253;DHT22;47127;47.516;8.596;2022-07-10T14:38:23;27.20;57.20
61253;DHT22;47127;47.516;8.596;2022-07-10T14:40:49;27.30;57.50
61253;DHT22;47127;47.516;8.596;2022-07-10T14:43:17;27.30;57.00
61253;DHT22;47127;47.516;8.596;2022-07-10T14:45:43;27.20;57.10
61253;DHT22;47127;47.516;8.596;2022-07-10T14:48:08;27.10;57.90
61253;DHT22;47127;47.516;8.596;2022-07-10T14:50:34;27.00;57.10
61253;DHT22;47127;47.516;8.596;2022-07-10T14:52:59;27.00;57.00
61253;DHT22;47127;47.516;8.596;2022-07-10T14:55:25;27.00;56.80
61253;DHT22;47127;47.516;8.596;2022-07-10T14:57:51;26.90;56.70
61253;DHT22;47127;47.516;8.596;2022-07-10T15:00:16;27.00;57.10
61253;DHT22;47127;47.516;8.596;2022-07-10T15:02:44;27.00;56.90
61253;DHT22;47127;47.516;8.596;2022-07-10T15:05:09;26.90;57.30
61253;DHT22;47127;47.516;8.596;2022-07-10T15:07:35;26.90;57.10
61253;DHT22;47127;47.516;8.596;2022-07-10T15:10:00;26.90;57.00
61253;DHT22;47127;47.516;8.596;2022-07-10T15:12:26;27.10;56.20
61253;DHT22;47127;47.516;8.596;2022-07-10T15:14:51;27.20;56.30
61253;DHT22;47127;47.516;8.596;2022-07-10T15:17:18;27.50;55.80
61253;DHT22;47127;47.516;8.596;2022-07-10T15:19:44;27.50;55.90
61253;DHT22;47127;47.516;8.596;2022-07-10T15:22:09;27.20;56.00
61253;DHT22;47127;47.516;8.596;2022-07-10T15:24:35;27.30;56.90
61253;DHT22;47127;47.516;8.596;2022-07-10T15:27:00;27.60;57.40
61253;DHT22;47127;47.516;8.596;2022-07-10T15:29:26;27.80;56.50
61253;DHT22;47127;47.516;8.596;2022-07-10T15:31:52;28.60;55.00
61253;DHT22;47127;47.516;8.596;2022-07-10T15:34:18;28.70;54.70
61253;DHT22;47127;47.516;8.596;2022-07-10T15:36:44;28.40;56.00
61253;DHT22;47127;47.516;8.596;2022-07-10T15:39:12;28.50;55.60
61253;DHT22;47127;47.516;8.596;2022-07-10T15:41:38;28.60;55.30
61253;DHT22;47127;47.516;8.596;2022-07-10T15:44:06;28.40;55.10
61253;DHT22;47127;47.516;8.596;2022-07-10T15:46:31;28.40;55.20
61253;DHT22;47127;47.516;8.596;2022-07-10T15:48:57;28.70;54.70
61253;DHT22;47127;47.516;8.596;2022-07-10T15:51:24;28.70;55.00
61253;DHT22;47127;47.516;8.596;2022-07-10T15:53:50;28.50;54.80
61253;DHT22;47127;47.516;8.596;2022-07-10T15:56:16;28.10;54.90
61253;DHT22;47127;47.516;8.596;2022-07-10T15:58:41;27.50;55.70
61253;DHT22;47127;47.516;8.596;2022-07-10T16:01:08;27.10;56.40
61253;DHT22;47127;47.516;8.596;2022-07-10T16:03:36;26.90;57.00